createdAt,value
2023-02-04T00:00:05.698Z,29.79
2023-02-04T00:02:32.766Z,30.79
2023-02-04T00:04:59.517Z,28.90
2023-02-04T00:07:26.448Z,30.19
2023-02-04T00:09:53.184Z,30.36
2023-02-04T00:12:19.983Z,32.12
2023-02-04T00:14:46.694Z,31.88
2023-02-04T00:17:13.433Z,30.33
2023-02-04T00:19:41.319Z,32.77
2023-02-04T00:22:09.332Z,32.38
2023-02-04T00:24:37.008Z,30.75
2023-02-04T00:27:05.609Z,31.32
2023-02-04T00:29:32.623Z,33.47
2023-02-04T00:31:59.624Z,33.83
2023-02-04T00:34:27.525Z,34.97
2023-02-04T00:36:54.468Z,30.03
2023-02-04T00:39:21.308Z,30.86
2023-02-04T00:41:48.319Z,30.05
2023-02-04T00:44:15.147Z,29.01
2023-02-04T00:46:42.837Z,30.19
2023-02-04T00:49:10.983Z,31.07
2023-02-04T00:51:39.606Z,28.62
2023-02-04T00:54:07.608Z,30.42
2023-02-04T00:56:34.804Z,30.46
2023-02-04T00:59:02.795Z,31.13
2023-02-04T01:01:30.000Z,31.64
2023-02-04T01:03:56.860Z,29.70
2023-02-04T01:06:23.917Z,29.96
2023-02-04T01:08:51.122Z,29.25
2023-02-04T01:11:18.419Z,30.12
2023-02-04T01:13:45.339Z,31.50
2023-02-04T01:16:13.136Z,30.59
2023-02-04T01:18:40.097Z,30.25
2023-02-04T01:21:07.239Z,30.12
2023-02-04T01:23:34.020Z,32.99
2023-02-04T01:26:01.167Z,29.68
2023-02-04T01:28:28.577Z,30.70
2023-02-04T01:30:55.759Z,28.71
2023-02-04T01:33:22.928Z,31.27
2023-02-04T01:35:50.548Z,29.91
2023-02-04T01:38:17.318Z,28.83
2023-02-04T01:40:44.187Z,30.77
2023-02-04T01:43:12.442Z,29.32
2023-02-04T01:45:39.750Z,29.90
2023-02-04T01:48:07.634Z,30.45
2023-02-04T01:50:35.135Z,28.43
2023-02-04T01:53:02.447Z,30.30
2023-02-04T01:55:32.279Z,33.33
2023-02-04T01:58:00.025Z,29.80
2023-02-04T02:00:31.057Z,32.95
2023-02-04T02:02:59.826Z,29.75
2023-02-04T02:05:41.569Z,30.86
2023-02-04T02:08:10.636Z,29.44
2023-02-04T02:10:41.353Z,29.42
2023-02-04T02:13:11.103Z,30.19
2023-02-04T02:15:39.442Z,30.85
2023-02-04T02:18:07.312Z,31.00
2023-02-04T02:20:35.387Z,28.37
2023-02-04T02:23:05.033Z,30.15
2023-02-04T02:25:32.649Z,29.16
2023-02-04T02:28:00.790Z,33.04
2023-02-04T02:30:29.718Z,29.24
2023-02-04T02:32:57.824Z,30.54
2023-02-04T02:35:24.712Z,32.12
2023-02-04T02:37:53.498Z,31.47
2023-02-04T02:40:20.511Z,31.20
2023-02-04T02:42:52.045Z,29.91
2023-02-04T02:45:26.772Z,31.26
2023-02-04T02:47:54.685Z,29.20
2023-02-04T02:50:25.021Z,28.11
2023-02-04T02:52:53.385Z,30.06
2023-02-04T02:55:23.891Z,28.64
2023-02-04T02:57:52.269Z,27.73
2023-02-04T03:00:24.024Z,30.67
2023-02-04T03:03:10.050Z,28.67
2023-02-04T03:05:42.294Z,31.45
2023-02-04T03:08:12.363Z,29.12
2023-02-04T03:10:39.374Z,30.42
2023-02-04T03:13:06.279Z,28.21
2023-02-04T03:15:33.541Z,28.62
2023-02-04T03:18:01.061Z,29.36
2023-02-04T03:20:31.033Z,31.91
2023-02-04T03:22:59.523Z,29.38
2023-02-04T03:25:28.375Z,32.43
2023-02-04T03:27:59.058Z,31.57
2023-02-04T03:30:27.453Z,30.69
2023-02-04T03:32:55.193Z,29.69
2023-02-04T03:35:21.927Z,29.05
2023-02-04T03:37:48.971Z,30.61
2023-02-04T03:40:16.442Z,28.71
2023-02-04T03:42:43.215Z,31.08
2023-02-04T03:45:10.142Z,31.04
2023-02-04T03:47:36.839Z,29.95
2023-02-04T03:50:04.111Z,28.81
2023-02-04T03:52:30.801Z,29.55
2023-02-04T03:54:57.782Z,28.67
2023-02-04T03:57:24.509Z,28.87
2023-02-04T03:59:51.193Z,31.11
2023-02-04T04:02:17.968Z,27.88
2023-02-04T04:04:44.668Z,26.96
2023-02-04T04:07:11.623Z,29.19
2023-02-04T04:09:38.333Z,27.55
2023-02-04T04:12:05.323Z,30.26
2023-02-04T04:14:32.127Z,29.71
2023-02-04T04:16:58.812Z,28.46
2023-02-04T04:19:25.638Z,30.35
2023-02-04T04:21:52.346Z,29.94
2023-02-04T04:24:19.075Z,28.68
2023-02-04T04:26:45.741Z,27.63
2023-02-04T04:29:12.887Z,27.71
2023-02-04T04:31:39.897Z,27.33
2023-02-04T04:34:06.718Z,27.17
2023-02-04T04:36:33.457Z,27.69
2023-02-04T04:39:00.402Z,30.17
2023-02-04T04:41:27.100Z,27.59
2023-02-04T04:43:54.178Z,28.08
2023-02-04T04:46:21.164Z,29.50
2023-02-04T04:48:48.299Z,28.36
2023-02-04T04:51:14.965Z,29.26
2023-02-04T04:53:42.157Z,28.56
2023-02-04T04:56:09.183Z,27.49
2023-02-04T04:58:35.926Z,27.85
2023-02-04T05:01:02.751Z,27.42
2023-02-04T05:03:29.595Z,28.77
2023-02-04T05:05:56.437Z,29.31
2023-02-04T05:08:23.882Z,26.46
2023-02-04T05:10:50.977Z,27.49
2023-02-04T05:13:17.681Z,27.41
2023-02-04T05:15:44.381Z,28.84
2023-02-04T05:18:11.067Z,30.80
2023-02-04T05:20:37.896Z,28.99
2023-02-04T05:23:05.817Z,28.73
2023-02-04T05:25:32.868Z,27.89
2023-02-04T05:27:59.677Z,28.17
2023-02-04T05:30:26.540Z,30.02
2023-02-04T05:32:53.741Z,29.17
2023-02-04T05:35:20.864Z,27.71
2023-02-04T05:37:47.642Z,29.50
2023-02-04T05:40:14.466Z,28.47
2023-02-04T05:42:42.066Z,27.53
2023-02-04T05:45:19.124Z,28.96
2023-02-04T05:47:45.896Z,28.27
2023-02-04T05:50:12.738Z,27.82
2023-02-04T05:52:40.449Z,27.29
2023-02-04T05:55:08.445Z,27.49
2023-02-04T05:57:35.728Z,28.28
2023-02-04T06:00:02.880Z,27.75
2023-02-04T06:02:38.992Z,28.78
2023-02-04T06:05:06.424Z,26.43
2023-02-04T06:07:33.157Z,25.53
2023-02-04T06:10:00.573Z,25.89
2023-02-04T06:12:27.914Z,27.38
2023-02-04T06:14:55.096Z,27.60
2023-02-04T06:17:21.831Z,26.53
2023-02-04T06:19:48.481Z,26.83
2023-02-04T06:22:15.213Z,28.35
2023-02-04T06:24:41.906Z,28.21
2023-02-04T06:27:08.622Z,25.94
2023-02-04T06:29:36.216Z,28.49
2023-02-04T06:32:03.066Z,26.47
2023-02-04T06:34:29.879Z,30.18
2023-02-04T06:36:56.588Z,29.13
2023-02-04T06:39:23.456Z,26.04
2023-02-04T06:41:50.179Z,26.59
2023-02-04T06:44:16.903Z,26.52
2023-02-04T06:46:44.117Z,27.25
2023-02-04T06:49:10.863Z,29.50
2023-02-04T06:51:37.566Z,29.52
2023-02-04T06:54:04.535Z,27.44
2023-02-04T06:56:31.297Z,27.25
2023-02-04T06:58:58.225Z,28.79
2023-02-04T07:01:25.026Z,27.50
2023-02-04T07:03:51.797Z,24.86
2023-02-04T07:06:18.585Z,27.13
2023-02-04T07:08:47.031Z,25.46
2023-02-04T07:11:14.248Z,24.80
2023-02-04T07:13:41.060Z,25.35
2023-02-04T07:16:08.523Z,26.91
2023-02-04T07:18:35.598Z,26.26
2023-02-04T07:21:02.319Z,24.95
2023-02-04T07:23:29.486Z,25.14
2023-02-04T07:25:57.428Z,25.26
2023-02-04T07:28:24.239Z,27.35
2023-02-04T07:30:51.745Z,26.61
2023-02-04T07:33:18.619Z,26.76
2023-02-04T07:35:45.456Z,26.47
2023-02-04T07:38:12.180Z,24.76
2023-02-04T07:40:39.364Z,26.53
2023-02-04T07:43:06.585Z,27.10
2023-02-04T07:45:34.295Z,25.63
2023-02-04T07:48:01.006Z,26.14
2023-02-04T07:50:27.766Z,23.90
2023-02-04T07:52:54.449Z,25.63
2023-02-04T07:55:21.305Z,26.45
2023-02-04T07:57:48.026Z,23.33
2023-02-04T08:00:16.361Z,28.37
2023-02-04T08:02:43.224Z,25.64
2023-02-04T08:05:11.348Z,28.24
2023-02-04T08:07:38.122Z,27.51
2023-02-04T08:10:06.229Z,24.87
2023-02-04T08:12:33.200Z,25.58
2023-02-04T08:15:01.470Z,25.09
2023-02-04T08:17:29.128Z,27.22
2023-02-04T08:19:56.911Z,26.63
2023-02-04T08:22:23.684Z,23.78
2023-02-04T08:24:50.459Z,24.32
2023-02-04T08:27:17.217Z,24.58
2023-02-04T08:29:44.564Z,23.56
2023-02-04T08:32:13.338Z,23.11
2023-02-04T08:34:40.826Z,22.95
2023-02-04T08:37:07.772Z,26.40
2023-02-04T08:39:34.484Z,23.63
2023-02-04T08:42:01.256Z,25.23
2023-02-04T08:44:28.002Z,24.85
2023-02-04T08:46:54.823Z,23.06
2023-02-04T08:49:21.953Z,24.40
2023-02-04T08:51:48.728Z,25.35
2023-02-04T08:54:15.884Z,23.39
2023-02-04T08:56:42.625Z,26.03
2023-02-04T08:59:09.436Z,23.55
2023-02-04T09:01:36.157Z,22.84
2023-02-04T09:04:03.468Z,25.52
2023-02-04T09:06:31.031Z,27.21
2023-02-04T09:08:57.805Z,23.20
2023-02-04T09:11:24.529Z,22.56
2023-02-04T09:13:51.269Z,22.00
2023-02-04T09:16:18.678Z,19.59
2023-02-04T09:18:46.406Z,19.92
2023-02-04T09:21:13.113Z,21.90
2023-02-04T09:23:39.880Z,21.28
2023-02-04T09:26:06.613Z,20.96
2023-02-04T09:28:33.694Z,20.75
2023-02-04T09:31:02.584Z,23.31
2023-02-04T09:33:31.393Z,24.32
2023-02-04T09:35:58.231Z,23.22
2023-02-04T09:38:25.020Z,22.46
2023-02-04T09:40:56.311Z,22.39
2023-02-04T09:43:27.667Z,24.63
2023-02-04T09:45:55.653Z,25.74
2023-02-04T09:48:24.628Z,22.37
2023-02-04T09:50:53.486Z,22.78
2023-02-04T09:53:23.453Z,22.95
2023-02-04T09:55:52.402Z,21.58
2023-02-04T09:58:22.308Z,22.57
2023-02-04T10:01:12.496Z,23.54
2023-02-04T10:03:46.719Z,22.22
2023-02-04T10:06:19.672Z,21.42
2023-02-04T10:08:49.352Z,26.69
2023-02-04T10:11:19.649Z,23.06
2023-02-04T10:13:54.147Z,22.47
2023-02-04T10:16:30.392Z,23.82
2023-02-04T10:19:03.552Z,26.06
2023-02-04T10:21:32.418Z,22.06
2023-02-04T10:24:02.698Z,23.79
2023-02-04T10:26:31.784Z,24.52
2023-02-04T10:29:09.781Z,21.62
2023-02-04T10:31:39.780Z,23.07
2023-02-04T10:34:13.446Z,20.94
2023-02-04T10:36:42.786Z,21.81
2023-02-04T10:39:14.460Z,24.40
2023-02-04T10:41:52.864Z,21.09
2023-02-04T10:44:28.422Z,24.08
2023-02-04T10:47:17.186Z,24.00
2023-02-04T10:49:55.429Z,25.13
2023-02-04T10:52:30.532Z,22.44
2023-02-04T10:54:58.502Z,24.25
2023-02-04T10:57:30.143Z,27.51
2023-02-04T11:00:00.550Z,24.95
2023-02-04T11:02:32.642Z,22.73
2023-02-04T11:05:00.044Z,22.81
2023-02-04T11:07:27.880Z,24.02
2023-02-04T11:09:54.848Z,25.57
2023-02-04T11:12:38.371Z,23.51
2023-02-04T11:15:06.121Z,24.61
2023-02-04T11:17:34.861Z,24.82
2023-02-04T11:20:16.394Z,23.31
2023-02-04T11:22:46.542Z,23.27
2023-02-04T11:25:34.449Z,23.89
2023-02-04T11:28:13.468Z,24.06
2023-02-04T11:30:40.293Z,24.85
2023-02-04T11:33:23.219Z,24.00
2023-02-04T11:36:05.907Z,25.81
2023-02-04T11:38:33.385Z,24.61
2023-02-04T11:41:01.221Z,23.82
2023-02-04T11:43:30.467Z,24.77
2023-02-04T11:46:18.524Z,23.90
2023-02-04T11:48:45.395Z,21.91
2023-02-04T11:51:15.403Z,23.26
2023-02-04T11:53:42.688Z,24.10
2023-02-04T11:56:22.784Z,23.56
2023-02-04T11:58:50.888Z,23.55
2023-02-04T12:01:25.939Z,22.13
2023-02-04T12:04:02.609Z,23.18
2023-02-04T12:06:33.771Z,21.42
2023-02-04T12:09:16.330Z,20.73
2023-02-04T12:11:58.018Z,21.96
2023-02-04T12:14:35.028Z,24.38
2023-02-04T12:17:02.362Z,23.71
2023-02-04T12:19:29.356Z,21.63
2023-02-04T12:21:56.172Z,23.59
2023-02-04T12:24:23.121Z,20.90
2023-02-04T12:26:49.955Z,20.21
2023-02-04T12:29:16.690Z,19.96
2023-02-04T12:31:43.637Z,20.17
2023-02-04T12:34:10.532Z,21.32
2023-02-04T12:36:37.384Z,20.78
2023-02-04T12:39:04.146Z,20.24
2023-02-04T12:41:30.939Z,20.71
2023-02-04T12:43:58.656Z,21.09
2023-02-04T12:46:25.668Z,20.73
2023-02-04T12:48:53.225Z,22.18
2023-02-04T12:51:21.153Z,20.37
2023-02-04T12:53:48.963Z,19.49
2023-02-04T12:56:16.067Z,22.87
2023-02-04T12:58:43.268Z,22.15
2023-02-04T13:01:10.329Z,20.31
2023-02-04T13:03:37.096Z,22.43
2023-02-04T13:06:04.173Z,21.56
2023-02-04T13:08:30.863Z,21.83
2023-02-04T13:10:57.640Z,20.10
2023-02-04T13:13:24.736Z,22.07
2023-02-04T13:15:51.522Z,21.08
2023-02-04T13:18:18.720Z,22.21
2023-02-04T13:20:46.236Z,21.36
2023-02-04T13:23:13.828Z,20.29
2023-02-04T13:25:40.933Z,21.42
2023-02-04T13:28:07.728Z,20.67
2023-02-04T13:30:34.595Z,20.04
2023-02-04T13:33:01.542Z,22.14
2023-02-04T13:35:28.815Z,20.44
2023-02-04T13:37:56.578Z,20.23
2023-02-04T13:40:23.647Z,20.17
2023-02-04T13:42:50.597Z,21.74
2023-02-04T13:45:19.067Z,22.10
2023-02-04T13:47:48.201Z,21.75
2023-02-04T13:50:17.518Z,21.83
2023-02-04T13:52:44.461Z,23.08
2023-02-04T13:55:11.177Z,21.07
2023-02-04T13:57:38.029Z,21.31
2023-02-04T14:00:09.101Z,20.98
2023-02-04T14:02:43.000Z,19.46
2023-02-04T14:05:09.892Z,20.28
2023-02-04T14:07:36.729Z,20.20
2023-02-04T14:10:04.621Z,19.65
2023-02-04T14:12:31.345Z,19.30
2023-02-04T14:14:58.083Z,20.21
2023-02-04T14:17:25.759Z,19.40
2023-02-04T14:19:52.738Z,20.06
2023-02-04T14:22:19.641Z,19.13
2023-02-04T14:24:47.677Z,20.01
2023-02-04T14:27:16.222Z,20.92
2023-02-04T14:29:43.087Z,20.28
2023-02-04T14:32:10.013Z,19.92
2023-02-04T14:34:36.804Z,19.59
2023-02-04T14:37:03.912Z,19.50
2023-02-04T14:39:30.744Z,20.32
2023-02-04T14:41:57.792Z,19.97
2023-02-04T14:44:24.656Z,19.47
2023-02-04T14:46:51.857Z,19.53
2023-02-04T14:49:18.976Z,19.31
2023-02-04T14:51:45.986Z,20.07
2023-02-04T14:54:13.715Z,19.99
2023-02-04T14:56:41.021Z,20.14
2023-02-04T14:59:08.261Z,19.74
2023-02-04T15:01:35.080Z,20.55
2023-02-04T15:04:01.888Z,20.83
2023-02-04T15:06:28.779Z,20.71
2023-02-04T15:08:57.302Z,20.65
2023-02-04T15:11:24.404Z,19.88
2023-02-04T15:13:51.210Z,19.23
2023-02-04T15:16:18.214Z,20.79
2023-02-04T15:18:45.110Z,20.20
2023-02-04T15:21:11.865Z,19.70
2023-02-04T15:23:38.698Z,19.91
2023-02-04T15:26:05.506Z,19.77
2023-02-04T15:28:32.374Z,21.50
2023-02-04T15:30:59.420Z,20.71
2023-02-04T15:33:26.733Z,19.32
2023-02-04T15:35:53.532Z,19.36
2023-02-04T15:38:20.217Z,20.26
2023-02-04T15:40:47.097Z,19.75
2023-02-04T15:43:13.946Z,20.14
2023-02-04T15:45:43.872Z,19.56
2023-02-04T15:48:11.714Z,20.30
2023-02-04T15:50:39.503Z,20.95
2023-02-04T15:53:06.839Z,19.95
2023-02-04T15:55:34.510Z,19.64
2023-02-04T15:58:01.799Z,19.43
2023-02-04T16:00:28.610Z,19.25
2023-02-04T16:02:55.488Z,18.97
2023-02-04T16:05:22.534Z,20.07
2023-02-04T16:07:50.066Z,20.63
2023-02-04T16:10:18.661Z,21.74
2023-02-04T16:12:47.434Z,19.36
2023-02-04T16:15:14.737Z,19.58
2023-02-04T16:17:42.103Z,21.64
2023-02-04T16:20:10.101Z,20.96
2023-02-04T16:22:37.330Z,21.60
2023-02-04T16:25:07.231Z,21.37
2023-02-04T16:27:34.178Z,21.13
2023-02-04T16:30:01.927Z,22.21
2023-02-04T16:32:29.191Z,22.26
2023-02-04T16:34:56.898Z,21.17
2023-02-04T16:37:24.014Z,20.56
2023-02-04T16:39:52.193Z,21.54
2023-02-04T16:42:19.756Z,21.52
2023-02-04T16:44:46.831Z,19.80
2023-02-04T16:47:13.526Z,21.05
2023-02-04T16:49:40.588Z,22.86
2023-02-04T16:52:08.102Z,20.66
2023-02-04T16:54:35.562Z,19.82
2023-02-04T16:57:04.046Z,19.57
2023-02-04T16:59:32.235Z,22.01
2023-02-04T17:02:00.826Z,23.42
2023-02-04T17:04:28.755Z,22.99
2023-02-04T17:06:56.669Z,21.94
2023-02-04T17:09:23.586Z,23.93
2023-02-04T17:11:51.166Z,23.78
2023-02-04T17:14:19.224Z,23.63
2023-02-04T17:16:47.802Z,20.65
2023-02-04T17:19:17.567Z,20.04
2023-02-04T17:21:45.041Z,20.59
2023-02-04T17:24:12.854Z,23.66
2023-02-04T17:26:40.687Z,23.12
2023-02-04T17:29:10.213Z,20.90
2023-02-04T17:31:37.756Z,19.45
2023-02-04T17:34:05.649Z,19.52
2023-02-04T17:36:32.567Z,24.89
2023-02-04T17:38:59.283Z,22.18
2023-02-04T17:41:26.392Z,21.08
2023-02-04T17:43:53.969Z,20.96
2023-02-04T17:46:21.297Z,25.49
2023-02-04T17:48:48.048Z,23.71
2023-02-04T17:51:14.878Z,23.06
2023-02-04T17:53:42.095Z,24.01
2023-02-04T17:56:14.212Z,21.26
2023-02-04T17:58:42.156Z,21.79
2023-02-04T18:01:18.735Z,20.77
2023-02-04T18:03:48.698Z,23.27
2023-02-04T18:06:24.606Z,23.20
2023-02-04T18:08:52.777Z,21.47
2023-02-04T18:11:27.894Z,25.21
2023-02-04T18:14:02.281Z,24.37
2023-02-04T18:16:31.522Z,22.62
2023-02-04T18:19:16.821Z,21.59
2023-02-04T18:21:44.281Z,24.27
2023-02-04T18:24:11.304Z,22.63
2023-02-04T18:26:44.717Z,23.10
2023-02-04T18:29:19.193Z,24.84
2023-02-04T18:31:52.281Z,21.22
2023-02-04T18:34:27.364Z,22.54
2023-02-04T18:36:55.335Z,20.86
2023-02-04T18:39:28.840Z,23.52
2023-02-04T18:41:56.330Z,24.29
2023-02-04T18:44:33.812Z,23.19
2023-02-04T18:47:05.273Z,22.66
2023-02-04T18:49:39.673Z,22.97
2023-02-04T18:52:20.365Z,22.87
2023-02-04T18:54:51.616Z,22.41
2023-02-04T18:57:38.364Z,20.80
2023-02-04T19:00:11.561Z,23.08
2023-02-04T19:02:46.574Z,21.65
2023-02-04T19:05:23.519Z,20.90
2023-02-04T19:07:51.447Z,20.42
2023-02-04T19:10:28.065Z,20.71
2023-02-04T19:13:10.642Z,21.37
2023-02-04T19:15:39.752Z,20.76
2023-02-04T19:18:27.147Z,20.20
2023-02-04T19:20:54.412Z,20.13
2023-02-04T19:23:23.848Z,20.47
2023-02-04T19:25:52.346Z,20.21
2023-02-04T19:28:37.545Z,20.47
2023-02-04T19:31:08.205Z,20.13
2023-02-04T19:33:34.838Z,20.84
2023-02-04T19:36:27.915Z,20.47
2023-02-04T19:39:03.444Z,19.81
2023-02-04T19:41:42.285Z,19.70
2023-02-04T19:44:27.345Z,20.17
2023-02-04T19:46:54.366Z,20.80
2023-02-04T19:49:28.669Z,21.56
2023-02-04T19:51:58.129Z,20.79
2023-02-04T19:54:45.115Z,20.52
2023-02-04T19:57:35.967Z,19.22
2023-02-04T20:00:02.750Z,20.62
2023-02-04T20:02:39.875Z,22.28
2023-02-04T20:05:18.770Z,20.36
2023-02-04T20:07:45.673Z,19.70
2023-02-04T20:10:25.668Z,19.59
2023-02-04T20:12:59.324Z,20.55
2023-02-04T20:15:26.489Z,19.39
2023-02-04T20:17:53.723Z,19.44
2023-02-04T20:20:29.991Z,19.34
2023-02-04T20:23:01.864Z,19.43
2023-02-04T20:25:45.063Z,19.08
2023-02-04T20:28:18.041Z,19.18
2023-02-04T20:30:46.291Z,19.98
2023-02-04T20:33:34.861Z,20.34
2023-02-04T20:36:26.268Z,20.87
2023-02-04T20:39:16.044Z,19.89
2023-02-04T20:41:43.197Z,20.54
2023-02-04T20:44:17.880Z,20.40
2023-02-04T20:46:44.932Z,20.07
2023-02-04T20:49:25.861Z,19.75
2023-02-04T20:52:00.185Z,18.89
2023-02-04T20:54:30.535Z,19.62
2023-02-04T20:57:15.628Z,19.66
2023-02-04T20:59:42.976Z,21.06
2023-02-04T21:02:21.945Z,19.76
2023-02-04T21:04:53.863Z,20.29
2023-02-04T21:07:23.235Z,20.35
2023-02-04T21:09:52.087Z,21.22
2023-02-04T21:12:20.533Z,21.16
2023-02-04T21:14:47.419Z,20.87
2023-02-04T21:17:14.234Z,20.72
2023-02-04T21:19:41.002Z,21.20
2023-02-04T21:22:08.621Z,21.04
2023-02-04T21:24:35.336Z,21.52
2023-02-04T21:27:02.339Z,21.16
2023-02-04T21:29:29.310Z,21.13
2023-02-04T21:31:56.250Z,20.92
2023-02-04T21:34:23.591Z,21.15
2023-02-04T21:36:50.257Z,21.20
2023-02-04T21:39:17.179Z,21.89
2023-02-04T21:41:43.877Z,20.48
2023-02-04T21:44:10.992Z,21.95
2023-02-04T21:46:38.223Z,21.06
2023-02-04T21:49:05.426Z,21.44
2023-02-04T21:51:32.248Z,21.14
2023-02-04T21:54:00.056Z,21.29
2023-02-04T21:56:26.898Z,21.24
2023-02-04T21:58:54.354Z,20.76
2023-02-04T22:01:21.179Z,20.00
2023-02-04T22:03:47.981Z,20.19
2023-02-04T22:06:14.832Z,20.17
2023-02-04T22:08:41.574Z,19.67
2023-02-04T22:11:08.628Z,19.56
2023-02-04T22:13:35.326Z,19.94
2023-02-04T22:16:02.114Z,19.89
2023-02-04T22:18:29.038Z,19.85
2023-02-04T22:20:55.960Z,20.90
2023-02-04T22:23:22.676Z,20.51
2023-02-04T22:25:49.401Z,20.43
2023-02-04T22:28:16.238Z,20.75
2023-02-04T22:30:43.086Z,20.76
2023-02-04T22:33:11.440Z,20.31
2023-02-04T22:35:38.560Z,20.98
2023-02-04T22:38:05.537Z,20.67
2023-02-04T22:40:32.241Z,20.89
2023-02-04T22:42:59.983Z,20.60
2023-02-04T22:45:26.710Z,20.51
2023-02-04T22:47:53.868Z,22.30
2023-02-04T22:50:20.673Z,21.73
2023-02-04T22:52:47.411Z,21.95
2023-02-04T22:55:14.337Z,21.28
2023-02-04T22:57:41.048Z,21.87
2023-02-04T23:00:09.738Z,22.01
2023-02-04T23:02:36.525Z,24.54
2023-02-04T23:05:04.258Z,25.98
2023-02-04T23:07:31.965Z,23.54
2023-02-04T23:09:59.169Z,23.20
2023-02-04T23:12:25.975Z,21.47
2023-02-04T23:14:53.027Z,24.38
2023-02-04T23:17:19.881Z,22.20
2023-02-04T23:19:46.792Z,21.75
2023-02-04T23:22:14.572Z,21.03
2023-02-04T23:24:42.484Z,20.87
2023-02-04T23:27:11.411Z,21.33
2023-02-04T23:29:39.699Z,20.91
2023-02-04T23:32:07.145Z,21.20
2023-02-04T23:34:34.590Z,20.96
2023-02-04T23:37:01.573Z,22.07
2023-02-04T23:39:28.799Z,23.70
2023-02-04T23:41:55.722Z,24.61
2023-02-04T23:44:22.964Z,21.96
2023-02-04T23:46:50.190Z,21.57
2023-02-04T23:49:17.061Z,20.93
2023-02-04T23:51:44.445Z,21.51
2023-02-04T23:54:11.328Z,20.85
2023-02-04T23:56:38.479Z,20.88
2023-02-04T23:59:06.106Z,21.87
